Terminal Aerodrome Forecast
Issued by NWS

Home | Current Version | Previous Version | Text Only | Print | Product List | Glossary On
Versions: 1 2 3 4 5 6 7 8 9 10 11 12
646
FTUS42 TJSJ 261721
TAFJMZ
TAF
TJMZ 261721Z 2618/2718 09006KT P6SM VCTS SCT025CB BKN030
     FM262300 06006KT P6SM FEW025 SCT060
     FM271530 27010KT P6SM SCT025 BKN040
      AMD NOT SKED 2622/2715=

USA.gov is the U.S. government's official web portal to all federal, state and local government web resources and services.